Portada
METAR-TAF:

METAR-TAF

Aeroports :

Aeroport de Fes

Fes, Marroc

latitud: 33-56N, longitud: 004-59W, altitud: 579 m

Observació

L'informe es va fer fa 12 minuts, a les 12:30 UTC
Vent 5 kt del Nord, variant entre Nord-Oest i Nord/Nord-Est
Temperatura 21°C
Humitat 53%
Pressió 1016 hPa
Visibilitat 10 km o més
Núvols disperses a una alçada de 3000 ft

METAR: GMFF 151230Z 35005KT 320V030 9999 SCT030 21/11 Q1016 NOSIG

Hora: 12:42 (12:42 UTC)

Pronòstic

L'informe es va fer fa 1 hora i 42 minuts, a les 11:00 UTC
Pronòstic vàlid del 15 a les 12 UTC al 16 a les 18 UTC
Vent 10 kt del Est/Nord-Est
Visibilitat 10 km o més
Escasses núvols a una alçada de 3000 ft
Núvols disperses a una alçada de 20000 ft
Evolucionant progressivament
l' 15 a les 19 UTC al 15 a les 22 UTC
Vent 4 kt del Sud/Sud-Oest
Visibilitat 10 km o més
sense núvols per sota de 1500 mi sense presència de cumulonimbus.

TAF: GMFF 151100Z 1512/1618 06010KT 9999 FEW030 SCT200 BECMG 1519/1522 20004KT CAVOK

Observacions i pronòstics meteorològics de més de 4000 aeroports (METAR i TAF).

Les estacions disponibles són els punts grocs i vermells al mapa.

Posi el ratolí al punt desitjat per veure el nom de l'estació.

Feu clic per veure les observacions i els pronòstics meteorològics.

Per canviar el mapa: feu clic els botons verds amb una creu de color negre per apropar; al botó verd amb un guió per allunyar la imatge; o en les fletxes verdes per a mapes adjacents.


METAR-TAF: